Time;durP1;ratioP1;P1;durP2;ratioP2;P2;SDS_P1;SDS_P2;PMS_P1;PMS_P2;Temp;Humidity;BMP_temperature;BMP_pressure;BME280_temperature;BME280_humidity;BME280_pressure;Samples;Min_cycle;Max_cycle;Signal;HPM_P1;HPM_P2
2022/06/23 00:01:43;;;;;;;2.55;1.30;;;25.00;56.30;;;;;;5068413;28;45608;-88
2022/06/23 00:04:13;;;;;;;2.55;1.58;;;25.00;56.20;;;;;;5071380;28;44731;-89
2022/06/23 00:06:44;;;;;;;1.90;1.40;;;25.00;56.30;;;;;;5070120;28;44816;-89
2022/06/23 00:09:32;;;;;;;1.92;1.42;;;25.00;56.10;;;;;;5067695;28;45225;-89
2022/06/23 00:11:59;;;;;;;1.75;1.40;;;25.00;56.20;;;;;;5067397;28;45339;-89
2022/06/23 00:14:26;;;;;;;2.65;1.52;;;24.90;56.00;;;;;;5070470;28;45207;-89
2022/06/23 00:16:53;;;;;;;1.20;1.10;;;24.90;56.10;;;;;;5070092;28;45188;-89
2022/06/23 00:19:22;;;;;;;3.03;1.27;;;24.90;56.10;;;;;;5070584;28;45266;-89
2022/06/23 00:21:50;;;;;;;4.38;1.50;;;24.90;56.10;;;;;;5070373;28;45469;-88
2022/06/23 00:24:19;;;;;;;2.65;1.30;;;24.90;56.10;;;;;;5067675;28;45257;-89
2022/06/23 00:26:45;;;;;;;1.42;1.33;;;24.90;56.00;;;;;;5070749;28;45190;-89
2022/06/23 00:29:13;;;;;;;3.00;1.40;;;24.90;56.00;;;;;;5071182;28;45300;-90
2022/06/23 00:31:42;;;;;;;2.28;1.42;;;24.90;56.00;;;;;;5071257;28;45444;-90
2022/06/23 00:34:15;;;;;;;5.32;1.45;;;24.90;56.00;;;;;;5071283;28;45201;-89
2022/06/23 00:36:49;;;;;;;3.13;1.30;;;24.80;55.80;;;;;;5071181;28;45200;-89
2022/06/23 00:39:21;;;;;;;2.25;1.30;;;24.80;55.90;;;;;;5071224;28;44958;-90
2022/06/23 00:41:48;;;;;;;2.95;1.60;;;24.80;55.90;;;;;;5071317;28;46837;-88
2022/06/23 00:44:18;;;;;;;2.33;1.40;;;24.80;55.90;;;;;;5071117;28;45323;-90
2022/06/23 00:46:47;;;;;;;3.45;1.50;;;24.80;55.90;;;;;;5070891;28;45269;-89
2022/06/23 00:49:16;;;;;;;3.13;1.33;;;24.80;55.90;;;;;;5071238;28;45296;-90
2022/06/23 00:51:47;;;;;;;4.38;1.50;;;24.80;56.00;;;;;;5068452;28;45410;-88
2022/06/23 00:54:17;;;;;;;3.28;1.40;;;24.80;55.90;;;;;;5050852;28;44795;-89
2022/06/23 00:56:46;;;;;;;1.60;1.50;;;24.70;55.80;;;;;;5050966;28;45211;-90
2022/06/23 00:59:15;;;;;;;1.52;1.42;;;24.80;55.80;;;;;;5048150;28;45306;-89
2022/06/23 01:01:44;;;;;;;1.85;1.38;;;24.70;55.90;;;;;;5050169;28;46994;-91
2022/06/23 01:04:19;;;;;;;1.75;1.63;;;24.70;55.70;;;;;;5050284;28;45198;-90
2022/06/23 01:06:49;;;;;;;1.45;1.30;;;24.70;55.60;;;;;;5047941;28;45205;-90
2022/06/23 01:09:21;;;;;;;1.67;1.40;;;24.70;55.70;;;;;;5048242;28;45241;-90
2022/06/23 01:11:51;;;;;;;3.53;1.33;;;24.70;55.70;;;;;;5050027;28;46891;-90
2022/06/23 01:14:23;;;;;;;3.17;1.27;;;24.70;55.80;;;;;;5049627;28;45226;-90
2022/06/23 01:16:52;;;;;;;1.52;1.40;;;24.70;55.70;;;;;;5047105;28;44676;-89
2022/06/23 01:19:55;;;;;;;1.90;1.30;;;24.70;55.70;;;;;;5049539;28;45200;-90
2022/06/23 01:22:30;;;;;;;5.15;1.55;;;24.70;55.60;;;;;;5046293;28;46673;-90
2022/06/23 01:25:01;;;;;;;3.13;1.52;;;24.60;55.60;;;;;;5049066;28;45266;-90
2022/06/23 01:27:51;;;;;;;2.70;1.50;;;24.60;55.60;;;;;;5049651;28;45301;-89
2022/06/23 01:30:19;;;;;;;1.40;1.30;;;24.60;55.60;;;;;;5049743;28;45412;-91
2022/06/23 01:32:48;;;;;;;1.55;1.10;;;24.60;55.50;;;;;;5046319;28;45414;-91
2022/06/23 01:35:16;;;;;;;1.67;1.20;;;24.60;55.60;;;;;;5047203;28;45354;-88
2022/06/23 01:37:45;;;;;;;1.40;1.30;;;24.60;55.50;;;;;;5050533;28;45239;-88
2022/06/23 01:40:17;;;;;;;3.55;1.60;;;24.50;55.40;;;;;;5047784;28;45298;-88
2022/06/23 01:42:48;;;;;;;2.70;1.30;;;24.50;55.50;;;;;;5047498;28;45388;-88
2022/06/23 01:45:19;;;;;;;1.90;1.23;;;24.50;55.40;;;;;;5050460;28;45337;-89
2022/06/23 01:47:48;;;;;;;1.80;1.27;;;24.50;55.40;;;;;;5050852;28;44584;-89
2022/06/23 01:50:32;;;;;;;2.90;1.38;;;24.50;55.40;;;;;;5050289;28;45419;-90
2022/06/23 01:53:26;;;;;;;1.40;1.30;;;24.50;55.40;;;;;;5049966;28;45442;-89
2022/06/23 01:56:20;;;;;;;2.35;1.30;;;24.50;55.40;;;;;;5035393;28;45418;-89
2022/06/23 01:58:55;;;;;;;1.90;1.30;;;24.50;55.50;;;;;;5047645;28;45396;-89
2022/06/23 02:01:26;;;;;;;2.20;1.35;;;24.50;56.00;;;;;;5050364;28;45487;-89
2022/06/23 02:03:57;;;;;;;1.42;1.20;;;24.50;55.30;;;;;;5049110;28;45412;-90
2022/06/23 02:06:26;;;;;;;2.30;1.70;;;24.50;55.30;;;;;;5049770;28;45283;-88
2022/06/23 02:08:56;;;;;;;1.48;1.23;;;24.50;55.30;;;;;;5049244;28;45266;-88
2022/06/23 02:11:28;;;;;;;3.28;1.30;;;24.50;55.30;;;;;;5047822;28;45364;-88
2022/06/23 02:13:58;;;;;;;2.67;1.55;;;24.50;55.20;;;;;;5049924;28;45468;-89
2022/06/23 02:16:27;;;;;;;4.53;1.42;;;24.50;55.20;;;;;;5050368;28;45332;-90
2022/06/23 02:18:56;;;;;;;3.25;1.50;;;24.50;55.20;;;;;;5049854;28;44648;-88
2022/06/23 02:21:26;;;;;;;1.35;1.13;;;24.40;55.20;;;;;;5049572;28;45532;-89
2022/06/23 02:23:54;;;;;;;1.20;1.10;;;24.40;55.30;;;;;;5050023;28;45640;-88
2022/06/23 02:26:23;;;;;;;3.13;1.25;;;24.40;55.10;;;;;;5049417;28;45267;-88
2022/06/23 02:28:58;;;;;;;2.22;1.20;;;24.40;55.10;;;;;;5047253;28;44767;-89
2022/06/23 02:31:32;;;;;;;1.85;1.42;;;24.40;55.10;;;;;;5046692;28;45297;-90
2022/06/23 02:34:00;;;;;;;1.88;1.20;;;24.40;55.00;;;;;;5048456;28;45494;-89
2022/06/23 02:36:38;;;;;;;2.42;1.20;;;24.40;55.10;;;;;;5046386;28;45242;-89
2022/06/23 02:39:05;;;;;;;1.55;1.25;;;24.30;55.10;;;;;;5046272;28;44594;-89
2022/06/23 02:41:34;;;;;;;3.90;1.58;;;24.40;55.00;;;;;;5046488;28;45506;-88
2022/06/23 02:44:18;;;;;;;2.90;1.40;;;24.30;55.00;;;;;;5047637;28;45302;-88
2022/06/23 02:46:57;;;;;;;1.98;1.20;;;24.30;54.90;;;;;;5048950;28;45325;-90
2022/06/23 02:49:37;;;;;;;2.88;1.45;;;24.30;54.90;;;;;;5047359;28;45253;-89
2022/06/23 02:52:23;;;;;;;3.30;1.27;;;24.30;54.90;;;;;;5046279;28;45360;-88
2022/06/23 02:55:08;;;;;;;1.33;1.23;;;24.30;54.80;;;;;;5020173;28;45547;-89
2022/06/23 02:57:39;;;;;;;3.90;1.40;;;24.30;54.90;;;;;;5029397;28;45357;-88
2022/06/23 03:00:09;;;;;;;2.50;1.67;;;24.30;54.80;;;;;;5029636;28;45203;-90
2022/06/23 03:02:42;;;;;;;2.83;1.30;;;24.30;54.80;;;;;;5028833;28;45312;-89
2022/06/23 03:05:15;;;;;;;2.42;1.40;;;24.30;54.90;;;;;;5028242;28;45491;-88
2022/06/23 03:07:43;;;;;;;2.17;1.45;;;24.30;54.70;;;;;;5025833;28;45170;-90
2022/06/23 03:10:13;;;;;;;1.63;1.33;;;24.30;54.80;;;;;;5025475;28;45294;-90
2022/06/23 03:12:41;;;;;;;2.92;1.50;;;24.30;54.80;;;;;;5028702;28;45242;-89
2022/06/23 03:15:11;;;;;;;2.95;1.30;;;24.30;54.80;;;;;;5025649;28;45551;-90
2022/06/23 03:17:41;;;;;;;1.80;1.40;;;24.30;54.80;;;;;;5029576;28;45282;-89
2022/06/23 03:20:12;;;;;;;4.43;1.42;;;24.30;54.70;;;;;;5032612;28;44798;-89
2022/06/23 03:22:41;;;;;;;1.98;1.30;;;24.30;54.80;;;;;;5031791;28;45227;-89
2022/06/23 03:25:13;;;;;;;2.53;1.35;;;24.30;54.60;;;;;;5032511;28;48069;-88
2022/06/23 03:27:45;;;;;;;2.90;1.40;;;24.30;54.70;;;;;;5032905;28;45198;-89
2022/06/23 03:30:17;;;;;;;2.58;1.48;;;24.20;54.60;;;;;;5032437;28;45104;-90
2022/06/23 03:32:47;;;;;;;1.52;1.30;;;24.20;54.70;;;;;;5029893;28;45322;-88
2022/06/23 03:35:17;;;;;;;2.90;1.27;;;24.20;54.60;;;;;;5032205;28;45384;-89
2022/06/23 03:37:47;;;;;;;3.22;1.38;;;24.20;54.50;;;;;;5029569;28;45259;-88
2022/06/23 03:43:08;;;;;;;2.67;1.40;;;24.20;54.60;;;;;;5033375;28;45318;-90
2022/06/23 03:45:37;;;;;;;1.65;1.27;;;24.20;54.50;;;;;;5029767;28;45355;-90
2022/06/23 03:48:07;;;;;;;1.40;1.27;;;24.20;54.50;;;;;;5029307;28;45322;-89
2022/06/23 03:50:35;;;;;;;3.58;1.35;;;24.20;54.60;;;;;;5051048;28;45289;-90
2022/06/23 03:53:04;;;;;;;4.28;1.38;;;24.20;54.50;;;;;;5049435;28;45240;-90
2022/06/23 03:55:33;;;;;;;1.70;1.35;;;24.20;54.40;;;;;;5052167;28;45486;-90
2022/06/23 03:58:01;;;;;;;2.88;1.52;;;24.20;54.50;;;;;;5052270;28;45198;-89
2022/06/23 04:00:32;;;;;;;2.38;1.40;;;24.20;54.50;;;;;;5051368;28;45408;-89
2022/06/23 04:03:13;;;;;;;1.40;1.20;;;24.20;54.50;;;;;;5052020;28;45263;-89
2022/06/23 04:06:13;;;;;;;1.88;1.10;;;24.20;54.40;;;;;;5052282;28;45461;-90
2022/06/23 04:08:44;;;;;;;2.30;1.65;;;24.20;54.30;;;;;;5049026;28;45195;-90
2022/06/23 04:14:01;;;;;;;2.17;1.38;;;24.20;54.40;;;;;;5047863;28;45249;-90
2022/06/23 04:16:28;;;;;;;1.80;1.50;;;24.10;54.30;;;;;;5052075;28;45220;-90
2022/06/23 04:18:57;;;;;;;2.28;1.15;;;24.10;54.30;;;;;;5049527;28;45411;-90
2022/06/23 04:21:25;;;;;;;4.13;1.20;;;24.10;54.40;;;;;;5051026;28;45210;-89
2022/06/23 04:23:53;;;;;;;2.13;1.40;;;24.10;54.40;;;;;;5048231;28;45322;-90
2022/06/23 04:26:22;;;;;;;2.25;1.30;;;24.10;54.40;;;;;;5047739;28;45793;-88
2022/06/23 04:28:50;;;;;;;1.60;1.27;;;24.10;54.40;;;;;;5048452;28;45246;-90
2022/06/23 04:31:19;;;;;;;1.58;1.20;;;24.10;54.30;;;;;;5048277;28;45227;-89
2022/06/23 04:33:48;;;;;;;2.40;1.42;;;24.10;54.80;;;;;;5051118;28;45302;-90
2022/06/23 04:36:18;;;;;;;1.73;1.13;;;24.10;54.30;;;;;;5047696;28;45403;-90
2022/06/23 04:38:47;;;;;;;2.80;1.33;;;24.10;54.30;;;;;;5050190;28;45286;-91
2022/06/23 04:41:17;;;;;;;2.92;1.33;;;24.10;54.30;;;;;;5050990;28;44658;-88
2022/06/23 04:43:46;;;;;;;1.77;1.35;;;24.10;54.30;;;;;;5048372;28;45308;-88
2022/06/23 04:46:15;;;;;;;2.20;1.20;;;24.10;54.30;;;;;;5050157;28;45731;-88
2022/06/23 04:48:49;;;;;;;2.13;1.30;;;24.10;54.30;;;;;;5047573;28;45208;-88
2022/06/23 04:51:21;;;;;;;1.33;1.30;;;24.10;54.10;;;;;;5050219;28;45281;-90
2022/06/23 04:53:53;;;;;;;4.10;1.40;;;24.10;54.10;;;;;;5050399;28;45284;-89
2022/06/23 04:56:37;;;;;;;2.67;1.35;;;24.10;54.20;;;;;;5049749;28;45519;-89
2022/06/23 04:59:08;;;;;;;2.40;1.27;;;24.10;54.10;;;;;;5049397;28;45325;-89
2022/06/23 05:01:40;;;;;;;1.67;1.20;;;24.10;54.10;;;;;;5047240;28;45237;-90
2022/06/23 05:04:11;;;;;;;2.53;1.30;;;24.10;54.10;;;;;;5047288;28;45302;-89
2022/06/23 05:06:40;;;;;;;2.10;1.25;;;24.10;54.10;;;;;;5049882;28;45422;-90
2022/06/23 05:09:11;;;;;;;2.78;1.40;;;24.10;54.20;;;;;;5046489;28;45433;-90
2022/06/23 05:11:42;;;;;;;1.77;1.30;;;24.10;54.10;;;;;;5049484;28;45186;-89
2022/06/23 05:14:16;;;;;;;2.65;1.17;;;24.10;54.70;;;;;;5049780;28;45254;-88
2022/06/23 05:16:44;;;;;;;1.20;1.10;;;24.10;54.20;;;;;;5049710;28;45297;-90
2022/06/23 05:19:13;;;;;;;1.80;1.33;;;24.10;54.00;;;;;;5047052;28;45166;-89
2022/06/23 05:21:43;;;;;;;1.30;1.20;;;24.10;54.10;;;;;;5047778;28;45292;-89
2022/06/23 05:24:14;;;;;;;1.90;1.30;;;24.10;54.00;;;;;;5047426;28;45415;-89
2022/06/23 05:26:43;;;;;;;3.95;1.63;;;24.10;54.00;;;;;;5046728;28;46573;-89
2022/06/23 05:29:14;;;;;;;2.13;1.50;;;24.10;54.10;;;;;;5046860;28;45227;-90
2022/06/23 05:31:41;;;;;;;2.92;1.70;;;24.10;53.90;;;;;;5048908;28;45351;-89
2022/06/23 05:34:12;;;;;;;1.48;1.35;;;24.10;54.00;;;;;;5048194;28;45330;-88
2022/06/23 05:36:50;;;;;;;3.63;1.83;;;24.10;54.00;;;;;;5047286;28;45648;-87
2022/06/23 05:39:20;;;;;;;2.58;1.52;;;24.10;53.90;;;;;;5050128;28;45302;-91
2022/06/23 05:41:49;;;;;;;1.92;1.20;;;24.10;53.90;;;;;;5052390;28;44645;-89
2022/06/23 05:44:17;;;;;;;1.70;1.60;;;24.10;53.90;;;;;;5053901;28;45273;-89
2022/06/23 05:46:45;;;;;;;3.05;1.83;;;24.10;53.90;;;;;;5051885;28;45755;-88
2022/06/23 05:49:14;;;;;;;2.15;1.60;;;24.10;54.60;;;;;;5050461;28;45364;-88
2022/06/23 05:51:44;;;;;;;2.38;1.67;;;24.10;53.90;;;;;;5051615;28;45339;-89
2022/06/23 05:54:15;;;;;;;2.95;1.70;;;24.10;53.80;;;;;;5051485;28;45282;-89
2022/06/23 05:56:45;;;;;;;2.08;1.52;;;24.10;53.80;;;;;;5049950;28;46526;-88
2022/06/23 05:59:14;;;;;;;2.65;1.60;;;24.10;53.90;;;;;;5050416;28;45202;-89
2022/06/23 06:01:44;;;;;;;6.28;1.80;;;24.10;53.80;;;;;;5050793;28;45233;-89
2022/06/23 06:04:15;;;;;;;3.13;1.85;;;24.10;53.80;;;;;;5051875;28;45583;-89
2022/06/23 06:06:44;;;;;;;2.88;1.50;;;24.20;53.80;;;;;;5051094;28;45432;-89
2022/06/23 06:11:59;;;;;;;1.65;1.50;;;24.20;53.80;;;;;;5050316;28;45227;-89
2022/06/23 06:14:27;;;;;;;3.50;1.73;;;24.20;53.70;;;;;;5047371;28;45431;-88
2022/06/23 06:16:56;;;;;;;2.35;1.85;;;24.20;53.80;;;;;;5050123;28;45274;-88
2022/06/23 06:19:24;;;;;;;2.53;1.80;;;24.20;53.80;;;;;;5051009;28;45149;-89
2022/06/23 06:21:53;;;;;;;1.80;1.70;;;24.20;53.70;;;;;;5051796;28;45246;-89
2022/06/23 06:24:23;;;;;;;4.28;1.80;;;24.30;53.70;;;;;;5048111;28;45123;-88
2022/06/23 06:26:51;;;;;;;1.80;1.63;;;24.30;53.60;;;;;;5048158;28;45554;-88
2022/06/23 06:29:21;;;;;;;5.50;2.10;;;24.30;53.60;;;;;;5050907;28;45292;-89
2022/06/23 06:31:50;;;;;;;5.05;1.90;;;24.30;53.60;;;;;;5047745;28;44652;-87
2022/06/23 06:34:18;;;;;;;3.05;1.77;;;24.30;53.50;;;;;;5051433;28;45392;-89
2022/06/23 06:36:46;;;;;;;3.80;1.67;;;24.30;53.60;;;;;;5050060;28;45215;-89
2022/06/23 06:39:15;;;;;;;4.53;2.20;;;24.30;53.60;;;;;;5048438;28;45182;-89
2022/06/23 06:41:45;;;;;;;2.28;1.80;;;24.40;53.60;;;;;;5050538;28;45357;-88
2022/06/23 06:44:12;;;;;;;2.75;1.65;;;24.40;53.70;;;;;;5051126;28;44982;-88
2022/06/23 06:46:39;;;;;;;3.25;2.00;;;24.40;53.50;;;;;;5048129;28;45682;-88
2022/06/23 06:49:07;;;;;;;2.35;2.00;;;24.50;53.40;;;;;;5050791;28;45277;-89
2022/06/23 06:51:34;;;;;;;2.75;1.90;;;24.50;53.40;;;;;;5051657;28;45386;-88
2022/06/23 06:54:05;;;;;;;4.55;2.30;;;24.50;53.30;;;;;;5068530;28;45185;-89
2022/06/23 06:56:37;;;;;;;1.90;1.70;;;24.50;53.50;;;;;;5074610;28;46625;-88
2022/06/23 06:59:11;;;;;;;2.85;1.75;;;24.50;53.40;;;;;;5075935;28;46124;-88
2022/06/23 07:01:39;;;;;;;3.00;2.15;;;24.50;53.30;;;;;;5075211;28;45211;-88
2022/06/23 07:04:09;;;;;;;3.38;2.10;;;24.50;53.30;;;;;;5074262;28;44855;-88
2022/06/23 07:06:39;;;;;;;4.38;2.20;;;24.60;53.50;;;;;;5074553;28;45697;-88
2022/06/23 07:09:11;;;;;;;3.22;1.73;;;24.60;53.40;;;;;;5054244;28;45601;-88
2022/06/23 07:11:47;;;;;;;3.40;1.90;;;24.60;53.40;;;;;;5071328;28;45277;-89
2022/06/23 07:14:19;;;;;;;6.30;2.40;;;24.60;53.30;;;;;;5072044;28;45206;-88
2022/06/23 07:16:49;;;;;;;3.60;2.10;;;24.60;53.30;;;;;;5065578;28;46586;-89
2022/06/23 07:19:18;;;;;;;2.67;2.40;;;24.60;53.10;;;;;;5067972;28;45291;-88
2022/06/23 07:21:47;;;;;;;3.97;2.28;;;24.60;53.40;;;;;;5070694;28;45281;-86
2022/06/23 07:24:16;;;;;;;3.55;1.95;;;24.60;53.40;;;;;;5066388;28;45459;-88
2022/06/23 07:26:46;;;;;;;3.45;2.30;;;24.60;53.40;;;;;;5067236;28;45742;-88
2022/06/23 07:29:32;;;;;;;5.63;2.65;;;24.70;53.70;;;;;;5071827;28;45199;-88
2022/06/23 07:32:06;;;;;;;2.40;2.20;;;24.70;53.80;;;;;;5065378;28;45388;-89
2022/06/23 07:34:35;;;;;;;5.30;2.78;;;24.70;53.90;;;;;;5069667;28;45157;-88
2022/06/23 07:37:07;;;;;;;3.42;2.95;;;24.80;54.50;;;;;;5068777;28;45227;-90
2022/06/23 07:39:34;;;;;;;3.70;2.97;;;24.80;54.60;;;;;;5069434;28;45216;-88
2022/06/23 07:42:05;;;;;;;4.18;2.90;;;24.80;55.00;;;;;;5070510;28;44753;-89
2022/06/23 07:44:33;;;;;;;9.55;3.60;;;24.80;55.40;;;;;;5068165;28;45342;-88
2022/06/23 07:47:02;;;;;;;5.65;3.35;;;24.90;55.80;;;;;;5066835;28;45501;-88
2022/06/23 07:49:30;;;;;;;8.43;3.30;;;24.90;56.10;;;;;;5066742;28;45380;-89
2022/06/23 07:51:57;;;;;;;8.45;3.50;;;25.00;56.30;;;;;;5064685;28;45241;-87
2022/06/23 07:54:25;;;;;;;6.72;3.25;;;25.00;56.50;;;;;;5067788;28;45384;-88
2022/06/23 07:56:53;;;;;;;6.50;3.20;;;25.00;56.80;;;;;;5069465;28;45497;-88
2022/06/23 07:59:21;;;;;;;6.65;3.20;;;25.00;57.00;;;;;;5070457;28;45405;-86
2022/06/23 08:01:50;;;;;;;5.75;3.17;;;25.10;57.70;;;;;;5068736;28;45158;-87
2022/06/23 08:04:22;;;;;;;4.50;3.33;;;25.10;58.00;;;;;;5071113;28;45487;-86
2022/06/23 08:06:49;;;;;;;6.25;3.50;;;25.20;58.10;;;;;;5070536;28;46231;-86
2022/06/23 08:09:19;;;;;;;7.72;3.47;;;25.20;58.30;;;;;;5066918;28;45303;-87
2022/06/23 08:14:32;;;;;;;7.53;3.00;;;25.30;58.70;;;;;;5067686;28;45252;-88
2022/06/23 08:16:58;;;;;;;7.45;3.33;;;25.30;59.20;;;;;;5066781;28;46592;-87
2022/06/23 08:19:31;;;;;;;5.72;3.10;;;25.30;59.10;;;;;;5070433;28;45274;-87
2022/06/23 08:22:02;;;;;;;4.32;2.90;;;25.40;59.30;;;;;;5067696;28;45167;-86
2022/06/23 08:24:29;;;;;;;12.38;3.38;;;25.40;59.80;;;;;;5070599;28;45375;-86
2022/06/23 08:26:58;;;;;;;6.03;2.80;;;25.50;60.10;;;;;;5067659;28;45655;-87
2022/06/23 08:29:28;;;;;;;8.75;3.47;;;25.50;60.00;;;;;;5067748;28;45196;-88
2022/06/23 08:31:55;;;;;;;8.10;3.53;;;25.50;60.20;;;;;;5070470;28;44786;-86
2022/06/23 08:34:22;;;;;;;5.75;3.22;;;25.50;60.60;;;;;;5071970;28;45217;-87
2022/06/23 08:36:52;;;;;;;8.35;3.65;;;25.60;60.60;;;;;;5072491;28;45644;-88
2022/06/23 08:39:20;;;;;;;7.05;2.92;;;25.60;60.60;;;;;;5072785;28;45314;-86
2022/06/23 08:41:51;;;;;;;7.75;3.05;;;25.60;59.10;;;;;;5069544;28;45310;-88
2022/06/23 08:44:20;;;;;;;8.68;2.75;;;25.60;59.00;;;;;;5072810;28;45323;-88
2022/06/23 08:46:50;;;;;;;10.43;2.60;;;25.60;58.00;;;;;;5069749;28;45444;-88
2022/06/23 08:49:21;;;;;;;10.77;2.85;;;25.60;57.70;;;;;;5072226;28;45225;-89
2022/06/23 08:51:56;;;;;;;10.60;2.67;;;25.60;57.70;;;;;;5072595;28;45213;-89
2022/06/23 08:54:26;;;;;;;8.00;2.80;;;25.60;57.80;;;;;;5073426;28;45192;-88
2022/06/23 08:56:56;;;;;;;9.52;2.58;;;25.70;57.70;;;;;;5071961;28;45479;-89
2022/06/23 08:59:27;;;;;;;8.30;2.78;;;25.70;58.00;;;;;;5073281;28;45217;-88
2022/06/23 09:01:59;;;;;;;9.23;2.25;;;25.80;57.50;;;;;;5073208;28;45328;-87
2022/06/23 09:04:28;;;;;;;9.18;2.83;;;25.80;56.50;;;;;;5073060;28;45447;-89
2022/06/23 09:06:58;;;;;;;10.63;2.85;;;25.80;56.60;;;;;;5073790;28;45550;-88
2022/06/23 09:09:31;;;;;;;9.85;3.00;;;25.90;56.90;;;;;;5074511;28;45253;-87
2022/06/23 09:12:04;;;;;;;4.97;2.47;;;25.90;56.80;;;;;;5074025;28;45124;-88
2022/06/23 09:14:51;;;;;;;10.90;2.65;;;26.00;56.80;;;;;;5072312;28;45193;-86
2022/06/23 09:17:43;;;;;;;6.40;2.65;;;26.00;56.30;;;;;;5071881;28;46388;-88
2022/06/23 09:20:19;;;;;;;7.03;2.35;;;26.00;56.00;;;;;;5059156;28;44791;-88
2022/06/23 09:23:02;;;;;;;9.35;2.25;;;26.00;55.40;;;;;;5070123;28;45240;-89
2022/06/23 09:25:33;;;;;;;7.70;2.80;;;26.00;55.60;;;;;;5067637;28;45423;-88
2022/06/23 09:28:14;;;;;;;7.07;2.78;;;26.00;55.60;;;;;;5070031;28;46433;-87
2022/06/23 09:30:43;;;;;;;10.02;3.10;;;26.10;55.90;;;;;;5069790;28;45262;-88
2022/06/23 09:33:23;;;;;;;4.03;2.13;;;26.10;55.90;;;;;;5069184;28;45248;-88
2022/06/23 09:36:09;;;;;;;8.80;2.40;;;26.10;56.20;;;;;;5066464;28;44830;-88
2022/06/23 09:39:08;;;;;;;6.97;2.25;;;26.20;56.10;;;;;;5068703;28;45458;-88
2022/06/23 09:42:01;;;;;;;8.45;3.22;;;26.20;56.00;;;;;;5066250;28;45266;-89
2022/06/23 09:44:37;;;;;;;9.00;2.50;;;26.30;56.20;;;;;;5065269;28;45217;-88
2022/06/23 09:47:13;;;;;;;9.95;3.20;;;26.40;56.10;;;;;;5069386;28;45327;-88
2022/06/23 09:49:47;;;;;;;11.40;2.70;;;26.40;56.00;;;;;;5068614;28;46958;-87
2022/06/23 09:52:40;;;;;;;7.90;2.90;;;26.40;55.90;;;;;;5069035;28;45193;-86
2022/06/23 09:55:16;;;;;;;13.32;3.00;;;26.50;56.10;;;;;;5065214;28;45225;-88
2022/06/23 09:58:00;;;;;;;6.10;2.47;;;26.50;55.70;;;;;;5067000;28;45171;-89
2022/06/23 10:00:30;;;;;;;8.40;2.22;;;26.50;55.80;;;;;;5069295;28;46204;-88
2022/06/23 10:03:04;;;;;;;9.02;2.75;;;26.60;55.40;;;;;;5068950;28;45327;-87
2022/06/23 10:05:52;;;;;;;13.77;2.80;;;26.60;55.60;;;;;;5068294;28;45319;-87
2022/06/23 10:08:24;;;;;;;9.18;2.65;;;26.60;55.60;;;;;;5068375;28;45326;-87
2022/06/23 10:11:17;;;;;;;10.30;3.25;;;26.70;56.20;;;;;;5068578;28;47039;-86
2022/06/23 10:13:54;;;;;;;8.02;2.60;;;26.70;55.90;;;;;;5068038;28;45260;-86
2022/06/23 10:16:31;;;;;;;11.02;3.00;;;26.80;55.60;;;;;;5066423;28;45213;-88
2022/06/23 10:19:16;;;;;;;8.00;2.55;;;26.80;55.50;;;;;;5069455;28;45446;-85
2022/06/23 10:21:50;;;;;;;7.88;2.38;;;26.80;55.70;;;;;;5067671;28;46340;-87
2022/06/23 10:24:45;;;;;;;9.57;2.33;;;26.90;55.50;;;;;;5068367;28;45323;-88
2022/06/23 10:27:24;;;;;;;10.65;3.00;;;27.00;55.50;;;;;;5047202;28;44806;-87
2022/06/23 10:30:11;;;;;;;10.02;2.50;;;27.00;55.30;;;;;;5066038;28;45391;-89
2022/06/23 10:33:02;;;;;;;13.00;3.17;;;27.10;55.40;;;;;;5068578;28;45461;-88
2022/06/23 10:35:38;;;;;;;12.43;3.30;;;27.10;55.30;;;;;;5067822;28;44816;-87
2022/06/23 10:38:33;;;;;;;8.00;2.88;;;27.20;55.40;;;;;;5065771;28;45279;-89
2022/06/23 10:41:10;;;;;;;10.25;3.08;;;27.20;55.10;;;;;;5068616;28;45354;-89
2022/06/23 10:43:57;;;;;;;6.07;2.53;;;27.30;55.00;;;;;;5067773;28;46893;-87
2022/06/23 10:46:32;;;;;;;5.28;2.90;;;27.30;55.30;;;;;;5067610;28;44624;-86
2022/06/23 10:49:11;;;;;;;11.57;2.90;;;27.30;54.80;;;;;;5068049;28;45208;-91
2022/06/23 10:52:22;;;;;;;9.15;3.25;;;27.40;54.80;;;;;;5068519;28;45414;-87
2022/06/23 10:54:57;;;;;;;11.57;2.75;;;27.50;54.90;;;;;;5067654;28;45147;-87
2022/06/23 10:57:40;;;;;;;6.38;2.30;;;27.50;54.70;;;;;;5064857;28;45180;-88
2022/06/23 11:00:11;;;;;;;8.63;3.03;;;27.60;54.60;;;;;;5065505;28;45300;-90
2022/06/23 11:03:04;;;;;;;10.27;2.75;;;27.60;53.80;;;;;;5068344;28;45495;-91
2022/06/23 11:05:49;;;;;;;9.40;3.25;;;27.60;53.90;;;;;;5067839;28;45294;-90
2022/06/23 11:08:30;;;;;;;10.80;3.13;;;27.60;54.10;;;;;;5066807;28;46286;-89
2022/06/23 11:11:04;;;;;;;5.00;2.25;;;27.70;54.00;;;;;;5060494;28;45242;-87
2022/06/23 11:13:36;;;;;;;10.23;2.42;;;27.80;53.90;;;;;;5068013;28;45408;-87
2022/06/23 11:16:07;;;;;;;6.47;2.50;;;27.90;53.90;;;;;;5067741;28;46754;-85
2022/06/23 11:18:59;;;;;;;9.65;3.28;;;27.90;53.40;;;;;;5066786;28;45159;-87
2022/06/23 11:21:32;;;;;;;7.78;2.40;;;28.00;53.20;;;;;;5067611;28;45443;-87
2022/06/23 11:24:02;;;;;;;10.25;2.85;;;28.00;53.30;;;;;;5068091;28;45445;-88
2022/06/23 11:26:43;;;;;;;8.80;2.70;;;28.10;52.80;;;;;;5068359;28;48275;-87
2022/06/23 11:29:25;;;;;;;6.70;2.90;;;28.20;52.50;;;;;;5067396;28;45359;-87
2022/06/23 11:31:57;;;;;;;8.85;2.75;;;28.20;52.40;;;;;;5064630;28;45303;-88
2022/06/23 11:34:37;;;;;;;11.73;3.00;;;28.30;52.70;;;;;;5064690;28;45407;-90
2022/06/23 11:37:15;;;;;;;9.00;2.60;;;28.40;52.70;;;;;;5068453;28;45510;-88
2022/06/23 11:39:50;;;;;;;7.82;2.97;;;28.50;53.60;;;;;;5068500;28;45323;-87
2022/06/23 11:42:52;;;;;;;8.05;2.70;;;28.60;52.20;;;;;;5068270;28;45423;-90
2022/06/23 11:45:25;;;;;;;13.10;3.03;;;28.60;52.50;;;;;;5068423;28;45285;-88
2022/06/23 11:48:01;;;;;;;20.02;3.30;;;28.70;52.70;;;;;;5070677;28;46375;-89
2022/06/23 11:50:34;;;;;;;9.95;3.38;;;28.80;52.50;;;;;;5070433;28;45400;-88
2022/06/23 11:53:23;;;;;;;11.32;2.90;;;28.90;52.30;;;;;;5069926;28;45298;-88
2022/06/23 11:55:51;;;;;;;6.40;2.58;;;29.00;52.60;;;;;;5068010;28;45414;-89
2022/06/23 11:58:29;;;;;;;5.22;2.72;;;29.10;52.40;;;;;;5070950;28;45245;-88
2022/06/23 12:01:03;;;;;;;7.10;2.45;;;29.10;52.10;;;;;;5070780;28;45174;-87
2022/06/23 12:03:42;;;;;;;9.30;2.70;;;29.20;52.20;;;;;;5069744;28;45150;-87
2022/06/23 12:06:13;;;;;;;6.22;2.40;;;29.30;51.80;;;;;;5067702;28;44819;-87
2022/06/23 12:08:51;;;;;;;7.07;2.40;;;29.40;51.50;;;;;;5070464;28;46525;-87
2022/06/23 12:11:18;;;;;;;9.85;2.65;;;29.50;51.50;;;;;;5070352;28;45307;-87
2022/06/23 12:13:44;;;;;;;7.22;2.47;;;29.50;51.30;;;;;;5070281;28;45360;-87
2022/06/23 12:16:11;;;;;;;8.50;2.67;;;29.60;51.50;;;;;;5071164;28;45308;-86
2022/06/23 12:18:47;;;;;;;10.00;2.50;;;29.70;51.40;;;;;;5069096;28;45671;-89
2022/06/23 12:21:21;;;;;;;7.05;2.70;;;29.80;51.20;;;;;;5068081;28;45387;-89
2022/06/23 12:23:49;;;;;;;9.10;2.70;;;29.80;50.70;;;;;;5063302;28;45179;-89
2022/06/23 12:26:17;;;;;;;10.75;2.53;;;29.80;50.10;;;;;;5057973;28;45197;-89
2022/06/23 12:28:46;;;;;;;10.10;3.00;;;29.90;50.30;;;;;;5067559;28;45406;-89
2022/06/23 12:31:26;;;;;;;10.02;3.00;;;30.00;50.10;;;;;;5056484;28;45197;-89
2022/06/23 12:34:00;;;;;;;8.63;2.65;;;30.00;49.80;;;;;;5050013;28;45349;-90
2022/06/23 12:36:30;;;;;;;8.15;2.63;;;30.20;49.30;;;;;;5050761;28;45204;-90
2022/06/23 12:38:59;;;;;;;11.55;3.08;;;30.20;49.00;;;;;;5057738;28;45426;-90
2022/06/23 12:41:29;;;;;;;7.00;2.85;;;30.20;48.40;;;;;;5069862;28;45185;-82
2022/06/23 12:43:58;;;;;;;6.45;2.03;;;30.20;48.60;;;;;;5069695;28;45238;-87
2022/06/23 12:46:32;;;;;;;9.05;2.60;;;30.30;49.10;;;;;;5069740;28;45190;-83
2022/06/23 12:49:30;;;;;;;6.70;2.60;;;30.30;48.60;;;;;;5068608;28;46782;-85
2022/06/23 12:52:11;;;;;;;8.15;2.65;;;30.40;48.30;;;;;;5048351;28;45312;-85
2022/06/23 12:54:48;;;;;;;7.07;2.55;;;30.40;48.20;;;;;;5065731;28;45199;-85
2022/06/23 12:57:30;;;;;;;8.35;2.35;;;30.40;48.60;;;;;;5051672;28;45370;-85
2022/06/23 13:00:00;;;;;;;7.40;2.40;;;30.50;48.70;;;;;;5048535;28;47254;-85
2022/06/23 13:02:30;;;;;;;10.38;2.63;;;30.60;48.20;;;;;;5048689;28;45663;-86
2022/06/23 13:05:03;;;;;;;7.32;2.58;;;30.70;48.00;;;;;;5046027;28;45326;-85
2022/06/23 13:07:33;;;;;;;10.90;3.08;;;30.80;47.60;;;;;;5048635;28;45370;-87
2022/06/23 13:10:01;;;;;;;8.60;2.92;;;30.80;46.90;;;;;;5048694;28;47005;-86
2022/06/23 13:12:31;;;;;;;9.07;2.42;;;30.90;46.80;;;;;;5045945;28;45388;-86
2022/06/23 13:15:00;;;;;;;9.18;2.65;;;30.90;46.80;;;;;;5048162;28;45313;-86
2022/06/23 13:17:32;;;;;;;6.07;2.50;;;30.90;46.80;;;;;;5048177;28;45200;-86
2022/06/23 13:20:03;;;;;;;9.07;2.72;;;30.90;46.50;;;;;;5048156;28;46248;-86
2022/06/23 13:22:31;;;;;;;7.53;3.00;;;31.00;46.80;;;;;;5048618;28;45403;-86
2022/06/23 13:24:57;;;;;;;7.32;2.55;;;31.10;46.70;;;;;;5049008;28;45341;-88
2022/06/23 13:27:26;;;;;;;8.18;2.58;;;31.10;46.40;;;;;;5048330;28;45240;-88